FW0027 Weather Reports


Display with metric or nautical units.
time (UTC)temp
F
wind
direction
speed
MPH
gust
MPH
rain 1hr
in
rain 24hr
in
rain mn
in
humidity
%
barometer
mb
20191016081627 89 122 8.0 14.0 0.00 0.00 0.00 67 1010.5
20191016080136 89 182 8.0 12.0 0.00 0.00 0.00 64 1010.4
20191016074624 89 123 6.0 13.0 0.00 0.00 0.00 63 1010.2
20191016073114 89 126 8.0 12.0 0.00 0.00 0.00 63 1010.1
20191016071622 88 108 4.0 9.0 0.00 0.00 0.00 61 1010.2
20191016070044 88 144 6.0 10.0 0.00 0.00 0.00 67 1010.4
20191016064623 88 153 3.0 9.0 0.00 0.00 0.00 66 1010.4
20191016063116 90 153 6.0 13.0 0.00 0.00 0.00 63 1010.7
20191016061602 91 138 8.0 14.0 0.00 0.00 0.00 60 1010.8
20191016060040 92 122 5.0 10.0 0.00 0.00 0.00 57 1010.6
20191016053033 91 78 5.0 12.0 0.00 0.00 0.00 58 1011.1
20191016051606 91 111 4.0 10.0 0.00 0.00 0.00 57 1011.3
20191016050019 90 105 7.0 13.0 0.00 0.00 0.00 59 1011.5
20191016044534 91 113 6.0 11.0 0.00 0.00 0.00 58 1011.7
20191016043046 90 96 7.0 11.0 0.00 0.00 0.00 57 1011.7
20191016041509 88 79 4.0 10.0 0.00 0.00 0.00 64 1012.0
20191016040011 86 162 5.0 10.0 0.00 0.00 0.00 65 1012.2
20191016034507 87 125 7.0 13.0 0.00 0.00 0.00 64 1012.6
20191016033006 87 67 6.0 13.0 0.00 0.00 0.00 64 1012.7
20191016031725 87 70 6.0 11.0 0.00 0.00 0.00 66 1012.8
20191016030251 87 291 2.0 8.0 0.00 0.00 0.00 67 1012.9
20191016024733 87 248 2.0 5.0 0.00 0.00 0.00 68 1013.1
20191016023250 87 301 3.0 8.0 0.00 0.00 0.00 69 1013.3
20191016021717 87 286 5.0 8.0 0.00 0.00 0.00 67 1013.5
20191016020224 87 331 3.0 8.0 0.00 0.00 0.00 68 1013.7
20191016014652 87 275 5.0 9.0 0.00 0.00 0.00 69 1013.9
20191016013216 85 294 5.0 8.0 0.00 0.00 0.00 72 1014.0
20191016011620 86 5 1.0 5.0 0.00 0.00 0.00 72 1014.2
20191016010132 86 188 1.0 6.0 0.00 0.00 0.00 70 1014.0
20191016004609 85 302 3.0 5.0 0.00 0.00 0.00 72 1014.0
20191016003126 86 328 2.0 7.0 0.00 0.00 0.00 69 1014.0
20191016001647 85 236 1.0 5.0 0.00 0.00 0.00 71 1014.0
20191016000114 84 239 1.0 6.0 0.00 0.00 0.00 73 1013.9
20191015234615 84 215 0.0 2.0 0.00 0.00 0.00 76 1013.9
20191015233103 82 215 0.0 2.0 0.00 0.00 0.00 77 1014.0
20191015231535 82 214 2.0 5.0 0.00 0.00 0.00 80 1014.0
20191015230059 81 207 1.0 5.0 0.00 0.00 0.00 81 1013.9
20191015224543 80 196 3.0 5.0 0.00 0.00 0.00 82 1013.5
20191015223047 80 194 3.0 6.0 0.00 0.00 0.00 82 1013.3
20191015221511 79 110 1.0 4.0 0.00 0.00 0.00 79 1013.2
20191015220017 79 108 0.0 1.0 0.00 0.00 0.00 79 1013.1
20191015214509 79 108 1.0 2.0 0.00 0.00 0.00 78 1013.0
20191015213005 79 108 0.0 2.0 0.00 0.00 0.00 78 1012.7
20191015211506 79 108 0.0 2.0 0.00 0.00 0.00 79 1012.6
20191015210004 79 108 0.0 1.0 0.00 0.00 0.00 78 1012.3
20191015204512 79 108 0.0 2.0 0.00 0.00 0.00 78 1012.3
20191015203004 79 108 0.0 2.0 0.00 0.00 0.00 77 1012.0
20191015200222 79 109 0.0 2.0 0.00 0.00 0.00 76 1012.0
20191015194651 80 108 1.0 3.0 0.00 0.00 0.00 76 1012.0
20191015193226 80 109 1.0 5.0 0.00 0.00 0.00 75 1011.9
20191015191715 80 89 1.0 4.0 0.00 0.00 0.00 75 1012.1
20191015190218 80 92 2.0 5.0 0.00 0.00 0.00 75 1012.2
20191015184638 80 93 1.0 4.0 0.00 0.00 0.00 76 1012.3
20191015183147 80 92 2.0 5.0 0.00 0.00 0.00 77 1012.4
20191015181642 80 94 2.0 5.0 0.00 0.00 0.00 78 1012.6
20191015180142 80 22 3.0 5.0 0.00 0.00 0.00 78 1012.6
20191015173138 80 108 2.0 5.0 0.00 0.00 0.00 78 1012.8
20191015171632 80 109 1.0 5.0 0.00 0.00 0.00 77 1013.1
20191015170054 81 104 0.0 4.0 0.00 0.00 0.00 76 1013.1
20191015164705 81 104 1.0 3.0 0.00 0.00 0.00 76 1013.2
20191015163114 81 104 1.0 4.0 0.00 0.00 0.00 75 1013.4
20191015161608 82 104 1.0 5.0 0.00 0.00 0.00 75 1013.6
20191015160133 82 83 4.0 5.0 0.00 0.00 0.00 75 1013.6
20191015154557 82 111 5.0 9.0 0.00 0.00 0.00 74 1013.7
20191015153113 82 97 3.0 9.0 0.00 0.00 0.00 75 1013.8
20191015151550 82 115 4.0 9.0 0.00 0.00 0.00 74 1013.9
20191015150052 82 126 3.0 8.0 0.00 0.00 0.00 75 1014.0
20191015144554 82 119 4.0 6.0 0.00 0.00 0.00 75 1014.1
20191015143051 83 107 3.0 7.0 0.00 0.00 0.00 74 1013.9
20191015141642 83 110 4.0 8.0 0.00 0.00 0.00 73 1014.0
20191015140033 83 139 4.0 8.0 0.00 0.00 0.00 72 1013.8
20191015134547 83 110 4.0 8.0 0.00 0.00 0.00 70 1013.9
20191015133109 83 116 4.0 8.0 0.00 0.00 0.00 70 1013.6
20191015131626 83 114 5.0 11.0 0.00 0.00 0.00 70 1013.6
20191015130043 83 100 2.0 8.0 0.00 0.00 0.00 70 1013.5
20191015124541 83 107 3.0 8.0 0.00 0.00 0.00 69 1013.4
20191015123036 84 123 5.0 10.0 0.00 0.00 0.00 68 1013.5
20191015121601 84 111 4.0 9.0 0.00 0.00 0.00 68 1013.3
20191015120128 84 110 6.0 11.0 0.00 0.00 0.00 69 1013.1
20191015114552 84 121 4.0 9.0 0.00 0.00 0.00 67 1012.9
20191015113027 84 96 4.0 8.0 0.00 0.00 0.00 67 1012.7
20191015111542 85 80 3.0 7.0 0.00 0.00 0.00 66 1012.6
20191015110101 85 85 3.0 8.0 0.00 0.00 0.00 65 1012.5
20191015104535 85 48 3.0 9.0 0.00 0.00 0.00 62 1012.3
20191015103040 85 101 4.0 9.0 0.00 0.00 0.00 62 1012.2
20191015101556 86 93 4.0 9.0 0.00 0.00 0.00 61 1012.1
20191015100044 86 83 4.0 11.0 0.00 0.00 0.00 60 1011.9
20191015094528 87 111 4.0 12.0 0.00 0.00 0.00 58 1011.7
20191015093044 87 100 6.0 14.0 0.00 0.00 0.00 57 1011.7
20191015091556 87 121 5.0 11.0 0.00 0.00 0.00 57 1011.5
20191015090032 88 139 9.0 14.0 0.00 0.00 0.00 61 1011.5
20191015084540 89 77 7.0 13.0 0.00 0.00 0.00 56 1011.4
20191015083052 89 100 5.0 13.0 0.00 0.00 0.00 56 1011.4